Ulmodrome de Limoux

FR-0329 · Aude, Occitanie, 法国

罗盘
风向 的 风向 的 风向 到 风向 260°
风: 9 kt, 3 beaufort

添加一条跑道以查看侧风和逆风信息。

添置 跑道
0 1.000 2.000 3.000 4.000 5.000
CAVOK
METAR LFMK 041200Z AUTO 26009KT 230V290 CAVOK 09/02 Q1010 NOSIG

METAR Ulmodrome de Limoux - FR-0329

Ulmodrome de Limoux是,法国中的小机场。 该领域的国际民航组织标志是FR-0329.

这份报告是针对2022年12月4日 13:00, 当地时间在Carcassonne Airport进行的。

机场观察

风向为260°,速度为9 kt。 风向在230°和290°之间变化。

天气为CAVOK。这意味着在5.000 ft或MSA(最低安全高度)以下(以较高者为准)以下没有云。这也意味着没有观测到积雨云或高耸的积云,可见度为10 km 或者更多或更高。此外,不会有雾,降雨或其他重要天气。

温度为9 °C,阵风为5 °C。 露点为2 °C,相对湿度为62%。 海平面上的气压为1010 hPa (QNH)。

白天

今天,太阳从08:05升起,在17:16降落。 这适用于Ulmodrome de Limoux,世界夏令时可能有所不同。 当地时间与世界标准时间之间的时差为+1 小时。 当前,没有夏令时有效。

公司介绍

我们没有关于这个机场的公司信息。

体会

到Vliegles.nl去找飞行课程,跳伞和其他飞行体验。 浏览页面,了解Ulmodrome de Limoux附近所有可用的活动。 你也可以使用搜索功能来寻找你所在地附近的特定飞行课程、跳伞或其他飞行体验。

温度 & 天气

温度 9 °C
露点 2 °C
相对湿度 62%
风寒 5 °C
Kp-index 2 (0-9)

白天

日出
08:06
中午
12:40
日落
17:15 (4:09)

小工具

你想在你的网站上有一个关于Ulmodrome de Limoux的当前航空天气(METAR)的小部件吗?

显示HTML代码

我们和第三方通过cookies跟踪您在我们网站上的互联网行为。如果你继续,我们认为你同意我们的饼干政策